Terminal Aerodrome Forecast
Issued by NWS

Current Version | Previous Version | Graphics & Text | Print | Product List | Glossary On
Versions: 1 2 3 4 5 6 7 8 9 10 11 12 13 14 15 16 17
000
FTUS41 KPBZ 241700
TAFMGW
TAF
KMGW 241734Z 2418/2518 18006KT P6SM SCT040 OVC150 WS015/19035KT
     FM242100 17010KT P6SM BKN035 OVC050 WS015/19040KT
     FM250100 22020G30KT P6SM -SHRA BKN020 OVC035
      TEMPO 2501/2503 20025G42KT 3SM TSRA OVC015CB
     FM250300 25017G29KT P6SM VCSH OVC020
     FM251200 24014G22KT P6SM -SHSN OVC015=

USA.gov is the U.S. government's official web portal to all federal, state and local government web resources and services.